sensor_id;sensor_type;location;lat;lon;timestamp;P1;durP1;ratioP1;P2;durP2;ratioP2
14078;SDS011;7115;50.150;8.568;2022-08-19T00:01:24;15.80;;;12.57;;
14078;SDS011;7115;50.150;8.568;2022-08-19T00:03:59;15.77;;;11.47;;
14078;SDS011;7115;50.150;8.568;2022-08-19T00:06:30;14.93;;;12.27;;
14078;SDS011;7115;50.150;8.568;2022-08-19T00:08:57;15.10;;;12.53;;
14078;SDS011;7115;50.150;8.568;2022-08-19T00:11:26;17.17;;;12.37;;
14078;SDS011;7115;50.150;8.568;2022-08-19T00:13:54;17.07;;;12.03;;
14078;SDS011;7115;50.150;8.568;2022-08-19T00:16:23;15.33;;;11.70;;
14078;SDS011;7115;50.150;8.568;2022-08-19T00:18:52;15.30;;;12.03;;
14078;SDS011;7115;50.150;8.568;2022-08-19T00:21:21;17.50;;;12.63;;
14078;SDS011;7115;50.150;8.568;2022-08-19T00:23:53;16.13;;;11.33;;
14078;SDS011;7115;50.150;8.568;2022-08-19T00:26:20;14.50;;;10.80;;
14078;SDS011;7115;50.150;8.568;2022-08-19T00:28:47;15.00;;;11.37;;
14078;SDS011;7115;50.150;8.568;2022-08-19T00:31:14;14.10;;;11.17;;
14078;SDS011;7115;50.150;8.568;2022-08-19T00:33:42;16.10;;;11.80;;
14078;SDS011;7115;50.150;8.568;2022-08-19T00:36:09;15.00;;;11.87;;
14078;SDS011;7115;50.150;8.568;2022-08-19T00:38:37;14.63;;;11.27;;
14078;SDS011;7115;50.150;8.568;2022-08-19T00:41:10;15.90;;;10.30;;
14078;SDS011;7115;50.150;8.568;2022-08-19T00:43:39;17.33;;;11.57;;
14078;SDS011;7115;50.150;8.568;2022-08-19T00:46:07;14.70;;;10.03;;
14078;SDS011;7115;50.150;8.568;2022-08-19T00:48:34;13.13;;;11.10;;
14078;SDS011;7115;50.150;8.568;2022-08-19T00:51:02;13.20;;;10.17;;
14078;SDS011;7115;50.150;8.568;2022-08-19T00:53:30;13.43;;;10.23;;
14078;SDS011;7115;50.150;8.568;2022-08-19T00:56:00;11.43;;;9.27;;
14078;SDS011;7115;50.150;8.568;2022-08-19T00:58:29;12.23;;;9.93;;
14078;SDS011;7115;50.150;8.568;2022-08-19T01:00:58;12.40;;;9.87;;
14078;SDS011;7115;50.150;8.568;2022-08-19T01:03:25;12.93;;;10.37;;
14078;SDS011;7115;50.150;8.568;2022-08-19T01:05:52;10.60;;;8.83;;
14078;SDS011;7115;50.150;8.568;2022-08-19T01:08:21;11.70;;;9.90;;
14078;SDS011;7115;50.150;8.568;2022-08-19T01:10:50;11.40;;;9.63;;
14078;SDS011;7115;50.150;8.568;2022-08-19T01:13:23;10.13;;;8.87;;
14078;SDS011;7115;50.150;8.568;2022-08-19T01:16:02;13.17;;;10.07;;
14078;SDS011;7115;50.150;8.568;2022-08-19T01:18:32;10.63;;;8.97;;
14078;SDS011;7115;50.150;8.568;2022-08-19T01:21:07;12.40;;;8.90;;
14078;SDS011;7115;50.150;8.568;2022-08-19T01:23:43;11.17;;;9.07;;
14078;SDS011;7115;50.150;8.568;2022-08-19T01:26:12;10.13;;;9.00;;
14078;SDS011;7115;50.150;8.568;2022-08-19T01:28:45;12.40;;;9.10;;
14078;SDS011;7115;50.150;8.568;2022-08-19T01:31:21;10.63;;;9.00;;
14078;SDS011;7115;50.150;8.568;2022-08-19T01:33:54;11.33;;;9.23;;
14078;SDS011;7115;50.150;8.568;2022-08-19T01:36:27;13.23;;;9.30;;
14078;SDS011;7115;50.150;8.568;2022-08-19T01:38:56;14.73;;;10.10;;
14078;SDS011;7115;50.150;8.568;2022-08-19T01:41:24;13.10;;;10.17;;
14078;SDS011;7115;50.150;8.568;2022-08-19T01:43:51;11.97;;;9.60;;
14078;SDS011;7115;50.150;8.568;2022-08-19T01:46:39;11.10;;;9.10;;
14078;SDS011;7115;50.150;8.568;2022-08-19T01:49:07;10.90;;;7.90;;
14078;SDS011;7115;50.150;8.568;2022-08-19T01:51:34;14.33;;;9.07;;
14078;SDS011;7115;50.150;8.568;2022-08-19T01:54:05;10.50;;;8.80;;
14078;SDS011;7115;50.150;8.568;2022-08-19T01:56:32;10.90;;;8.03;;
14078;SDS011;7115;50.150;8.568;2022-08-19T01:59:00;10.30;;;8.40;;
14078;SDS011;7115;50.150;8.568;2022-08-19T02:01:30;11.43;;;8.23;;
14078;SDS011;7115;50.150;8.568;2022-08-19T02:04:01;13.83;;;8.93;;
14078;SDS011;7115;50.150;8.568;2022-08-19T02:06:28;11.60;;;9.10;;
14078;SDS011;7115;50.150;8.568;2022-08-19T02:08:55;10.80;;;7.40;;
14078;SDS011;7115;50.150;8.568;2022-08-19T02:11:25;10.30;;;8.67;;
14078;SDS011;7115;50.150;8.568;2022-08-19T02:13:57;13.33;;;8.67;;
14078;SDS011;7115;50.150;8.568;2022-08-19T02:16:25;11.30;;;8.27;;
14078;SDS011;7115;50.150;8.568;2022-08-19T02:18:52;9.83;;;8.20;;
14078;SDS011;7115;50.150;8.568;2022-08-19T02:21:19;11.33;;;8.10;;
14078;SDS011;7115;50.150;8.568;2022-08-19T02:23:49;9.80;;;7.47;;
14078;SDS011;7115;50.150;8.568;2022-08-19T02:26:16;9.97;;;8.23;;
14078;SDS011;7115;50.150;8.568;2022-08-19T02:28:44;10.17;;;7.70;;
14078;SDS011;7115;50.150;8.568;2022-08-19T02:31:12;11.17;;;7.23;;
14078;SDS011;7115;50.150;8.568;2022-08-19T02:33:41;13.90;;;8.17;;
14078;SDS011;7115;50.150;8.568;2022-08-19T02:36:09;12.37;;;7.50;;
14078;SDS011;7115;50.150;8.568;2022-08-19T02:38:37;10.60;;;7.90;;
14078;SDS011;7115;50.150;8.568;2022-08-19T02:41:05;11.13;;;7.77;;
14078;SDS011;7115;50.150;8.568;2022-08-19T02:43:43;10.00;;;7.50;;
14078;SDS011;7115;50.150;8.568;2022-08-19T02:46:31;8.20;;;6.80;;
14078;SDS011;7115;50.150;8.568;2022-08-19T02:49:00;10.80;;;7.47;;
14078;SDS011;7115;50.150;8.568;2022-08-19T02:51:30;10.37;;;7.23;;
14078;SDS011;7115;50.150;8.568;2022-08-19T02:54:02;9.37;;;6.80;;
14078;SDS011;7115;50.150;8.568;2022-08-19T02:56:30;9.37;;;6.90;;
14078;SDS011;7115;50.150;8.568;2022-08-19T02:58:57;9.33;;;7.40;;
14078;SDS011;7115;50.150;8.568;2022-08-19T03:01:28;11.37;;;7.30;;
14078;SDS011;7115;50.150;8.568;2022-08-19T03:03:58;11.07;;;7.57;;
14078;SDS011;7115;50.150;8.568;2022-08-19T03:06:26;11.07;;;7.53;;
14078;SDS011;7115;50.150;8.568;2022-08-19T03:08:54;9.27;;;7.37;;
14078;SDS011;7115;50.150;8.568;2022-08-19T03:11:22;9.57;;;7.90;;
14078;SDS011;7115;50.150;8.568;2022-08-19T03:13:51;12.50;;;7.30;;
14078;SDS011;7115;50.150;8.568;2022-08-19T03:16:23;7.73;;;6.90;;
14078;SDS011;7115;50.150;8.568;2022-08-19T03:18:52;10.50;;;7.03;;
14078;SDS011;7115;50.150;8.568;2022-08-19T03:21:24;9.47;;;6.93;;
14078;SDS011;7115;50.150;8.568;2022-08-19T03:23:56;12.07;;;6.77;;
14078;SDS011;7115;50.150;8.568;2022-08-19T03:26:24;11.83;;;6.67;;
14078;SDS011;7115;50.150;8.568;2022-08-19T03:28:51;9.63;;;6.60;;
14078;SDS011;7115;50.150;8.568;2022-08-19T03:31:24;10.20;;;6.10;;
14078;SDS011;7115;50.150;8.568;2022-08-19T03:34:13;7.77;;;5.87;;
14078;SDS011;7115;50.150;8.568;2022-08-19T03:36:56;6.17;;;5.57;;
14078;SDS011;7115;50.150;8.568;2022-08-19T03:39:24;9.20;;;5.87;;
14078;SDS011;7115;50.150;8.568;2022-08-19T03:41:53;9.20;;;6.17;;
14078;SDS011;7115;50.150;8.568;2022-08-19T03:44:43;8.50;;;5.53;;
14078;SDS011;7115;50.150;8.568;2022-08-19T03:47:11;10.83;;;5.60;;
14078;SDS011;7115;50.150;8.568;2022-08-19T03:49:42;8.13;;;5.70;;
14078;SDS011;7115;50.150;8.568;2022-08-19T03:52:09;8.37;;;5.60;;
14078;SDS011;7115;50.150;8.568;2022-08-19T03:54:36;6.63;;;5.23;;
14078;SDS011;7115;50.150;8.568;2022-08-19T03:57:04;7.63;;;5.47;;
14078;SDS011;7115;50.150;8.568;2022-08-19T03:59:32;8.13;;;5.67;;
14078;SDS011;7115;50.150;8.568;2022-08-19T04:02:01;7.37;;;5.00;;
14078;SDS011;7115;50.150;8.568;2022-08-19T04:04:33;5.80;;;4.73;;
14078;SDS011;7115;50.150;8.568;2022-08-19T04:07:02;6.77;;;5.00;;
14078;SDS011;7115;50.150;8.568;2022-08-19T04:09:29;6.37;;;5.27;;
14078;SDS011;7115;50.150;8.568;2022-08-19T04:11:56;5.70;;;5.17;;
14078;SDS011;7115;50.150;8.568;2022-08-19T04:14:25;6.40;;;4.97;;
14078;SDS011;7115;50.150;8.568;2022-08-19T04:16:55;7.60;;;5.93;;
14078;SDS011;7115;50.150;8.568;2022-08-19T04:19:23;7.57;;;5.10;;
14078;SDS011;7115;50.150;8.568;2022-08-19T04:21:51;6.47;;;5.07;;
14078;SDS011;7115;50.150;8.568;2022-08-19T04:24:19;8.13;;;5.30;;
14078;SDS011;7115;50.150;8.568;2022-08-19T04:26:47;7.33;;;5.53;;
14078;SDS011;7115;50.150;8.568;2022-08-19T04:29:16;6.50;;;5.40;;
14078;SDS011;7115;50.150;8.568;2022-08-19T04:31:48;9.43;;;5.67;;
14078;SDS011;7115;50.150;8.568;2022-08-19T04:34:17;7.03;;;5.40;;
14078;SDS011;7115;50.150;8.568;2022-08-19T04:36:48;6.77;;;5.20;;
14078;SDS011;7115;50.150;8.568;2022-08-19T04:39:18;8.53;;;5.37;;
14078;SDS011;7115;50.150;8.568;2022-08-19T04:41:48;10.43;;;5.47;;
14078;SDS011;7115;50.150;8.568;2022-08-19T04:44:34;6.07;;;5.37;;
14078;SDS011;7115;50.150;8.568;2022-08-19T04:47:11;6.13;;;5.33;;
14078;SDS011;7115;50.150;8.568;2022-08-19T04:49:38;6.43;;;5.10;;
14078;SDS011;7115;50.150;8.568;2022-08-19T04:52:05;6.57;;;5.30;;
14078;SDS011;7115;50.150;8.568;2022-08-19T04:54:31;9.00;;;6.33;;
14078;SDS011;7115;50.150;8.568;2022-08-19T04:57:04;7.83;;;5.53;;
14078;SDS011;7115;50.150;8.568;2022-08-19T04:59:36;6.00;;;5.23;;
14078;SDS011;7115;50.150;8.568;2022-08-19T05:02:05;7.20;;;5.03;;
14078;SDS011;7115;50.150;8.568;2022-08-19T05:04:34;6.40;;;5.40;;
14078;SDS011;7115;50.150;8.568;2022-08-19T05:07:05;7.10;;;5.40;;
14078;SDS011;7115;50.150;8.568;2022-08-19T05:09:33;9.70;;;6.13;;
14078;SDS011;7115;50.150;8.568;2022-08-19T05:12:20;6.27;;;5.30;;
14078;SDS011;7115;50.150;8.568;2022-08-19T05:14:53;9.97;;;5.00;;
14078;SDS011;7115;50.150;8.568;2022-08-19T05:17:22;7.03;;;4.83;;
14078;SDS011;7115;50.150;8.568;2022-08-19T05:19:53;9.27;;;5.00;;
14078;SDS011;7115;50.150;8.568;2022-08-19T05:22:39;8.83;;;5.60;;
14078;SDS011;7115;50.150;8.568;2022-08-19T05:25:08;8.70;;;5.67;;
14078;SDS011;7115;50.150;8.568;2022-08-19T05:27:39;7.43;;;4.93;;
14078;SDS011;7115;50.150;8.568;2022-08-19T05:30:08;8.13;;;4.73;;
14078;SDS011;7115;50.150;8.568;2022-08-19T05:32:35;7.93;;;5.40;;
14078;SDS011;7115;50.150;8.568;2022-08-19T05:35:02;6.20;;;4.33;;
14078;SDS011;7115;50.150;8.568;2022-08-19T05:37:30;5.53;;;4.27;;
14078;SDS011;7115;50.150;8.568;2022-08-19T05:39:57;5.43;;;4.57;;
14078;SDS011;7115;50.150;8.568;2022-08-19T05:42:23;4.10;;;3.70;;
14078;SDS011;7115;50.150;8.568;2022-08-19T05:44:51;7.07;;;3.87;;
14078;SDS011;7115;50.150;8.568;2022-08-19T05:47:18;5.97;;;3.63;;
14078;SDS011;7115;50.150;8.568;2022-08-19T05:49:46;6.17;;;4.13;;
14078;SDS011;7115;50.150;8.568;2022-08-19T05:52:13;5.50;;;4.07;;
14078;SDS011;7115;50.150;8.568;2022-08-19T05:54:45;4.40;;;3.43;;
14078;SDS011;7115;50.150;8.568;2022-08-19T05:57:17;5.13;;;3.27;;
14078;SDS011;7115;50.150;8.568;2022-08-19T05:59:44;5.07;;;3.67;;
14078;SDS011;7115;50.150;8.568;2022-08-19T06:02:14;5.47;;;3.50;;
14078;SDS011;7115;50.150;8.568;2022-08-19T06:04:41;6.63;;;3.10;;
14078;SDS011;7115;50.150;8.568;2022-08-19T06:07:10;4.87;;;2.90;;
14078;SDS011;7115;50.150;8.568;2022-08-19T06:09:38;4.93;;;3.00;;
14078;SDS011;7115;50.150;8.568;2022-08-19T06:12:06;4.33;;;3.80;;
14078;SDS011;7115;50.150;8.568;2022-08-19T06:14:33;6.30;;;2.80;;
14078;SDS011;7115;50.150;8.568;2022-08-19T06:17:07;4.30;;;2.80;;
14078;SDS011;7115;50.150;8.568;2022-08-19T06:19:34;4.37;;;3.03;;
14078;SDS011;7115;50.150;8.568;2022-08-19T06:22:06;5.33;;;3.30;;
14078;SDS011;7115;50.150;8.568;2022-08-19T06:24:33;3.87;;;3.10;;
14078;SDS011;7115;50.150;8.568;2022-08-19T06:27:01;4.53;;;2.57;;
14078;SDS011;7115;50.150;8.568;2022-08-19T06:29:31;4.17;;;2.77;;
14078;SDS011;7115;50.150;8.568;2022-08-19T06:31:59;2.67;;;2.47;;
14078;SDS011;7115;50.150;8.568;2022-08-19T06:34:29;2.97;;;2.60;;
14078;SDS011;7115;50.150;8.568;2022-08-19T06:36:59;3.80;;;2.10;;
14078;SDS011;7115;50.150;8.568;2022-08-19T06:39:29;3.10;;;2.47;;
14078;SDS011;7115;50.150;8.568;2022-08-19T06:41:59;2.67;;;2.27;;
14078;SDS011;7115;50.150;8.568;2022-08-19T06:44:29;3.50;;;2.50;;
14078;SDS011;7115;50.150;8.568;2022-08-19T06:47:07;3.87;;;2.40;;
14078;SDS011;7115;50.150;8.568;2022-08-19T06:49:48;3.80;;;2.50;;
14078;SDS011;7115;50.150;8.568;2022-08-19T06:52:15;3.30;;;2.57;;
14078;SDS011;7115;50.150;8.568;2022-08-19T06:54:43;4.83;;;2.30;;
14078;SDS011;7115;50.150;8.568;2022-08-19T06:57:22;3.00;;;2.10;;
14078;SDS011;7115;50.150;8.568;2022-08-19T06:59:50;3.33;;;2.40;;
14078;SDS011;7115;50.150;8.568;2022-08-19T07:02:17;3.30;;;2.27;;
14078;SDS011;7115;50.150;8.568;2022-08-19T07:04:45;3.67;;;2.70;;
14078;SDS011;7115;50.150;8.568;2022-08-19T07:07:13;4.20;;;2.50;;
14078;SDS011;7115;50.150;8.568;2022-08-19T07:09:46;5.13;;;2.60;;
14078;SDS011;7115;50.150;8.568;2022-08-19T07:12:25;3.63;;;2.20;;
14078;SDS011;7115;50.150;8.568;2022-08-19T07:14:55;4.80;;;3.03;;
14078;SDS011;7115;50.150;8.568;2022-08-19T07:17:23;4.90;;;2.47;;
14078;SDS011;7115;50.150;8.568;2022-08-19T07:19:50;2.50;;;2.07;;
14078;SDS011;7115;50.150;8.568;2022-08-19T07:22:19;2.73;;;2.53;;
14078;SDS011;7115;50.150;8.568;2022-08-19T07:24:49;3.67;;;3.10;;
14078;SDS011;7115;50.150;8.568;2022-08-19T07:27:17;4.87;;;2.63;;
14078;SDS011;7115;50.150;8.568;2022-08-19T07:29:50;3.90;;;2.43;;
14078;SDS011;7115;50.150;8.568;2022-08-19T07:32:22;2.83;;;2.37;;
14078;SDS011;7115;50.150;8.568;2022-08-19T07:34:52;3.63;;;2.60;;
14078;SDS011;7115;50.150;8.568;2022-08-19T07:37:19;4.17;;;2.60;;
14078;SDS011;7115;50.150;8.568;2022-08-19T07:39:46;4.07;;;2.50;;
14078;SDS011;7115;50.150;8.568;2022-08-19T07:42:13;3.23;;;2.60;;
14078;SDS011;7115;50.150;8.568;2022-08-19T07:44:40;4.33;;;2.93;;
14078;SDS011;7115;50.150;8.568;2022-08-19T07:47:15;3.60;;;3.00;;
14078;SDS011;7115;50.150;8.568;2022-08-19T07:50:04;5.20;;;2.80;;
14078;SDS011;7115;50.150;8.568;2022-08-19T07:52:33;3.70;;;2.80;;
14078;SDS011;7115;50.150;8.568;2022-08-19T07:55:00;4.43;;;2.97;;
14078;SDS011;7115;50.150;8.568;2022-08-19T07:57:29;3.27;;;2.97;;
14078;SDS011;7115;50.150;8.568;2022-08-19T07:59:56;4.77;;;3.20;;
14078;SDS011;7115;50.150;8.568;2022-08-19T08:02:23;4.83;;;2.60;;
14078;SDS011;7115;50.150;8.568;2022-08-19T08:04:50;3.63;;;2.97;;
14078;SDS011;7115;50.150;8.568;2022-08-19T08:07:35;3.03;;;2.73;;
14078;SDS011;7115;50.150;8.568;2022-08-19T08:10:21;6.57;;;3.23;;
14078;SDS011;7115;50.150;8.568;2022-08-19T08:12:50;4.93;;;3.00;;
14078;SDS011;7115;50.150;8.568;2022-08-19T08:15:34;3.57;;;3.13;;
14078;SDS011;7115;50.150;8.568;2022-08-19T08:18:08;4.53;;;3.57;;
14078;SDS011;7115;50.150;8.568;2022-08-19T08:20:36;6.83;;;3.63;;
14078;SDS011;7115;50.150;8.568;2022-08-19T08:23:03;4.17;;;3.50;;
14078;SDS011;7115;50.150;8.568;2022-08-19T08:25:50;6.00;;;3.80;;
14078;SDS011;7115;50.150;8.568;2022-08-19T08:28:18;5.20;;;3.17;;
14078;SDS011;7115;50.150;8.568;2022-08-19T08:30:46;3.93;;;3.27;;
14078;SDS011;7115;50.150;8.568;2022-08-19T08:33:19;3.80;;;3.40;;
14078;SDS011;7115;50.150;8.568;2022-08-19T08:35:59;5.07;;;3.70;;
14078;SDS011;7115;50.150;8.568;2022-08-19T08:38:29;4.67;;;3.10;;
14078;SDS011;7115;50.150;8.568;2022-08-19T08:41:52;4.53;;;3.30;;
14078;SDS011;7115;50.150;8.568;2022-08-19T08:43:57;3.63;;;2.90;;
14078;SDS011;7115;50.150;8.568;2022-08-19T08:46:27;3.63;;;3.27;;
14078;SDS011;7115;50.150;8.568;2022-08-19T08:51:48;3.80;;;3.10;;
14078;SDS011;7115;50.150;8.568;2022-08-19T08:54:25;9.90;;;4.07;;
14078;SDS011;7115;50.150;8.568;2022-08-19T08:57:00;5.57;;;3.33;;
14078;SDS011;7115;50.150;8.568;2022-08-19T08:59:33;5.37;;;3.33;;
14078;SDS011;7115;50.150;8.568;2022-08-19T09:02:03;3.83;;;3.20;;
14078;SDS011;7115;50.150;8.568;2022-08-19T09:04:30;5.57;;;3.70;;
14078;SDS011;7115;50.150;8.568;2022-08-19T09:07:13;5.10;;;3.57;;
14078;SDS011;7115;50.150;8.568;2022-08-19T09:10:22;3.73;;;3.43;;
14078;SDS011;7115;50.150;8.568;2022-08-19T09:15:58;4.50;;;3.20;;
14078;SDS011;7115;50.150;8.568;2022-08-19T09:18:43;4.13;;;3.00;;
14078;SDS011;7115;50.150;8.568;2022-08-19T09:21:10;4.07;;;3.67;;
14078;SDS011;7115;50.150;8.568;2022-08-19T09:23:37;4.83;;;3.97;;
14078;SDS011;7115;50.150;8.568;2022-08-19T09:26:17;5.10;;;3.63;;
14078;SDS011;7115;50.150;8.568;2022-08-19T09:28:50;5.00;;;3.77;;
14078;SDS011;7115;50.150;8.568;2022-08-19T09:31:20;4.10;;;3.50;;
14078;SDS011;7115;50.150;8.568;2022-08-19T09:33:52;5.20;;;3.70;;
14078;SDS011;7115;50.150;8.568;2022-08-19T09:36:23;4.07;;;3.70;;
14078;SDS011;7115;50.150;8.568;2022-08-19T09:39:00;4.03;;;3.53;;
14078;SDS011;7115;50.150;8.568;2022-08-19T09:41:29;6.03;;;4.13;;
14078;SDS011;7115;50.150;8.568;2022-08-19T09:43:56;4.70;;;3.70;;
14078;SDS011;7115;50.150;8.568;2022-08-19T09:46:25;4.00;;;3.60;;
14078;SDS011;7115;50.150;8.568;2022-08-19T09:48:54;3.87;;;3.40;;
14078;SDS011;7115;50.150;8.568;2022-08-19T09:51:31;3.40;;;3.10;;
14078;SDS011;7115;50.150;8.568;2022-08-19T09:54:01;5.07;;;3.67;;
14078;SDS011;7115;50.150;8.568;2022-08-19T09:56:30;3.57;;;3.27;;
14078;SDS011;7115;50.150;8.568;2022-08-19T09:58:59;5.50;;;3.80;;
14078;SDS011;7115;50.150;8.568;2022-08-19T10:01:28;4.27;;;3.87;;
14078;SDS011;7115;50.150;8.568;2022-08-19T10:03:57;4.93;;;4.17;;
14078;SDS011;7115;50.150;8.568;2022-08-19T10:06:26;6.90;;;4.30;;
14078;SDS011;7115;50.150;8.568;2022-08-19T10:09:12;6.53;;;4.60;;
14078;SDS011;7115;50.150;8.568;2022-08-19T10:11:40;4.73;;;4.00;;
14078;SDS011;7115;50.150;8.568;2022-08-19T10:14:17;5.50;;;4.40;;
14078;SDS011;7115;50.150;8.568;2022-08-19T10:16:48;5.57;;;4.37;;
14078;SDS011;7115;50.150;8.568;2022-08-19T10:19:15;4.37;;;3.97;;
14078;SDS011;7115;50.150;8.568;2022-08-19T10:21:51;5.70;;;4.60;;
14078;SDS011;7115;50.150;8.568;2022-08-19T10:24:25;5.53;;;4.70;;
14078;SDS011;7115;50.150;8.568;2022-08-19T10:26:54;5.33;;;4.50;;
14078;SDS011;7115;50.150;8.568;2022-08-19T10:29:25;6.43;;;5.63;;
14078;SDS011;7115;50.150;8.568;2022-08-19T10:31:59;5.67;;;4.93;;
14078;SDS011;7115;50.150;8.568;2022-08-19T10:34:36;6.10;;;5.10;;
14078;SDS011;7115;50.150;8.568;2022-08-19T10:37:14;10.07;;;6.27;;
14078;SDS011;7115;50.150;8.568;2022-08-19T10:39:49;6.50;;;5.90;;
14078;SDS011;7115;50.150;8.568;2022-08-19T10:42:16;5.27;;;4.60;;
14078;SDS011;7115;50.150;8.568;2022-08-19T10:44:44;6.97;;;5.63;;
14078;SDS011;7115;50.150;8.568;2022-08-19T10:47:12;5.37;;;4.77;;
14078;SDS011;7115;50.150;8.568;2022-08-19T10:49:51;7.13;;;5.33;;
14078;SDS011;7115;50.150;8.568;2022-08-19T10:52:41;9.17;;;6.30;;
14078;SDS011;7115;50.150;8.568;2022-08-19T10:55:16;5.33;;;4.83;;
14078;SDS011;7115;50.150;8.568;2022-08-19T10:58:03;6.50;;;5.10;;
14078;SDS011;7115;50.150;8.568;2022-08-19T11:00:36;11.20;;;5.43;;
14078;SDS011;7115;50.150;8.568;2022-08-19T11:03:03;5.50;;;5.00;;
14078;SDS011;7115;50.150;8.568;2022-08-19T11:05:30;5.60;;;5.10;;
14078;SDS011;7115;50.150;8.568;2022-08-19T11:08:05;6.87;;;6.23;;
14078;SDS011;7115;50.150;8.568;2022-08-19T11:10:49;6.40;;;5.80;;
14078;SDS011;7115;50.150;8.568;2022-08-19T11:13:17;7.77;;;6.33;;
14078;SDS011;7115;50.150;8.568;2022-08-19T11:15:43;6.67;;;5.53;;
14078;SDS011;7115;50.150;8.568;2022-08-19T11:18:13;5.93;;;5.40;;
14078;SDS011;7115;50.150;8.568;2022-08-19T11:20:40;5.20;;;4.80;;
14078;SDS011;7115;50.150;8.568;2022-08-19T11:23:07;7.27;;;5.70;;
14078;SDS011;7115;50.150;8.568;2022-08-19T11:25:34;6.67;;;6.13;;
14078;SDS011;7115;50.150;8.568;2022-08-19T11:28:01;6.53;;;5.87;;
14078;SDS011;7115;50.150;8.568;2022-08-19T11:30:28;7.10;;;5.67;;
14078;SDS011;7115;50.150;8.568;2022-08-19T11:32:54;7.40;;;6.60;;
14078;SDS011;7115;50.150;8.568;2022-08-19T11:35:21;7.03;;;6.27;;
14078;SDS011;7115;50.150;8.568;2022-08-19T11:37:49;7.17;;;6.53;;
14078;SDS011;7115;50.150;8.568;2022-08-19T11:40:16;7.97;;;6.80;;
14078;SDS011;7115;50.150;8.568;2022-08-19T11:42:43;6.60;;;6.00;;
14078;SDS011;7115;50.150;8.568;2022-08-19T11:45:26;6.63;;;5.97;;
14078;SDS011;7115;50.150;8.568;2022-08-19T11:47:54;7.73;;;5.70;;
14078;SDS011;7115;50.150;8.568;2022-08-19T11:50:22;6.83;;;6.13;;
14078;SDS011;7115;50.150;8.568;2022-08-19T11:52:49;8.30;;;6.37;;
14078;SDS011;7115;50.150;8.568;2022-08-19T11:55:20;5.40;;;4.90;;
14078;SDS011;7115;50.150;8.568;2022-08-19T11:57:46;5.13;;;4.67;;
14078;SDS011;7115;50.150;8.568;2022-08-19T12:00:13;5.40;;;4.90;;
14078;SDS011;7115;50.150;8.568;2022-08-19T12:02:40;5.63;;;4.73;;
14078;SDS011;7115;50.150;8.568;2022-08-19T12:05:08;5.70;;;5.20;;
14078;SDS011;7115;50.150;8.568;2022-08-19T12:07:38;8.13;;;5.47;;
14078;SDS011;7115;50.150;8.568;2022-08-19T12:10:06;6.03;;;5.53;;
14078;SDS011;7115;50.150;8.568;2022-08-19T12:12:34;6.80;;;5.00;;
14078;SDS011;7115;50.150;8.568;2022-08-19T12:15:00;5.40;;;4.90;;
14078;SDS011;7115;50.150;8.568;2022-08-19T12:17:28;5.70;;;5.20;;
14078;SDS011;7115;50.150;8.568;2022-08-19T12:19:56;5.90;;;5.23;;
14078;SDS011;7115;50.150;8.568;2022-08-19T12:22:23;7.63;;;5.73;;
14078;SDS011;7115;50.150;8.568;2022-08-19T12:24:50;7.83;;;5.70;;
14078;SDS011;7115;50.150;8.568;2022-08-19T12:27:19;5.37;;;4.80;;
14078;SDS011;7115;50.150;8.568;2022-08-19T12:30:06;5.63;;;5.13;;
14078;SDS011;7115;50.150;8.568;2022-08-19T12:32:35;5.33;;;4.83;;
14078;SDS011;7115;50.150;8.568;2022-08-19T12:35:03;5.70;;;5.20;;
14078;SDS011;7115;50.150;8.568;2022-08-19T12:37:30;5.53;;;5.03;;
14078;SDS011;7115;50.150;8.568;2022-08-19T12:39:58;5.03;;;4.53;;
14078;SDS011;7115;50.150;8.568;2022-08-19T12:42:25;5.43;;;4.40;;
14078;SDS011;7115;50.150;8.568;2022-08-19T12:44:52;4.90;;;4.20;;
14078;SDS011;7115;50.150;8.568;2022-08-19T12:47:19;4.80;;;4.30;;
14078;SDS011;7115;50.150;8.568;2022-08-19T12:49:46;4.77;;;4.37;;
14078;SDS011;7115;50.150;8.568;2022-08-19T12:52:21;4.10;;;3.70;;
14078;SDS011;7115;50.150;8.568;2022-08-19T12:54:50;4.13;;;3.73;;
14078;SDS011;7115;50.150;8.568;2022-08-19T12:57:20;4.80;;;3.50;;
14078;SDS011;7115;50.150;8.568;2022-08-19T12:59:59;7.13;;;3.33;;
14078;SDS011;7115;50.150;8.568;2022-08-19T13:02:40;4.23;;;3.27;;
14078;SDS011;7115;50.150;8.568;2022-08-19T13:05:13;3.43;;;3.10;;
14078;SDS011;7115;50.150;8.568;2022-08-19T13:07:42;3.77;;;3.47;;
14078;SDS011;7115;50.150;8.568;2022-08-19T13:10:13;5.00;;;3.70;;
14078;SDS011;7115;50.150;8.568;2022-08-19T13:12:42;4.00;;;3.30;;
14078;SDS011;7115;50.150;8.568;2022-08-19T13:15:09;4.07;;;3.37;;
14078;SDS011;7115;50.150;8.568;2022-08-19T13:17:40;3.77;;;3.33;;
14078;SDS011;7115;50.150;8.568;2022-08-19T13:20:07;5.17;;;3.47;;
14078;SDS011;7115;50.150;8.568;2022-08-19T13:22:35;3.77;;;3.47;;
14078;SDS011;7115;50.150;8.568;2022-08-19T13:25:06;3.50;;;3.20;;
14078;SDS011;7115;50.150;8.568;2022-08-19T13:27:33;6.30;;;3.17;;
14078;SDS011;7115;50.150;8.568;2022-08-19T13:30:02;4.40;;;3.40;;
14078;SDS011;7115;50.150;8.568;2022-08-19T13:32:48;3.97;;;3.57;;
14078;SDS011;7115;50.150;8.568;2022-08-19T13:35:33;2.77;;;2.53;;
14078;SDS011;7115;50.150;8.568;2022-08-19T13:38:00;2.67;;;2.47;;
14078;SDS011;7115;50.150;8.568;2022-08-19T13:40:32;5.63;;;2.90;;
14078;SDS011;7115;50.150;8.568;2022-08-19T13:43:02;3.17;;;2.80;;
14078;SDS011;7115;50.150;8.568;2022-08-19T13:45:52;3.27;;;2.70;;
14078;SDS011;7115;50.150;8.568;2022-08-19T13:48:22;3.27;;;2.97;;
14078;SDS011;7115;50.150;8.568;2022-08-19T13:50:50;3.00;;;2.73;;
14078;SDS011;7115;50.150;8.568;2022-08-19T13:53:16;3.60;;;2.53;;
14078;SDS011;7115;50.150;8.568;2022-08-19T13:55:44;5.97;;;2.93;;
14078;SDS011;7115;50.150;8.568;2022-08-19T13:58:11;4.50;;;2.60;;
14078;SDS011;7115;50.150;8.568;2022-08-19T14:00:41;5.10;;;2.90;;
14078;SDS011;7115;50.150;8.568;2022-08-19T14:03:09;2.63;;;2.43;;
14078;SDS011;7115;50.150;8.568;2022-08-19T14:05:37;2.60;;;2.40;;
14078;SDS011;7115;50.150;8.568;2022-08-19T14:08:04;2.80;;;2.60;;
14078;SDS011;7115;50.150;8.568;2022-08-19T14:10:31;6.63;;;2.53;;
14078;SDS011;7115;50.150;8.568;2022-08-19T14:13:01;4.17;;;2.97;;
14078;SDS011;7115;50.150;8.568;2022-08-19T14:15:29;4.23;;;3.07;;
14078;SDS011;7115;50.150;8.568;2022-08-19T14:17:57;3.53;;;2.73;;
14078;SDS011;7115;50.150;8.568;2022-08-19T14:20:24;2.63;;;2.40;;
14078;SDS011;7115;50.150;8.568;2022-08-19T14:22:52;3.30;;;2.30;;
14078;SDS011;7115;50.150;8.568;2022-08-19T14:25:22;3.83;;;2.40;;
14078;SDS011;7115;50.150;8.568;2022-08-19T14:27:51;5.07;;;2.67;;
14078;SDS011;7115;50.150;8.568;2022-08-19T14:30:23;4.93;;;2.60;;
14078;SDS011;7115;50.150;8.568;2022-08-19T14:32:58;2.67;;;2.47;;
14078;SDS011;7115;50.150;8.568;2022-08-19T14:35:29;4.10;;;2.57;;
14078;SDS011;7115;50.150;8.568;2022-08-19T14:38:01;7.73;;;2.60;;
14078;SDS011;7115;50.150;8.568;2022-08-19T14:40:31;3.30;;;2.30;;
14078;SDS011;7115;50.150;8.568;2022-08-19T14:42:59;2.40;;;2.20;;
14078;SDS011;7115;50.150;8.568;2022-08-19T14:45:35;3.10;;;2.67;;
14078;SDS011;7115;50.150;8.568;2022-08-19T14:48:06;4.33;;;2.37;;
14078;SDS011;7115;50.150;8.568;2022-08-19T14:50:44;5.03;;;2.30;;
14078;SDS011;7115;50.150;8.568;2022-08-19T14:53:11;3.37;;;2.47;;
14078;SDS011;7115;50.150;8.568;2022-08-19T14:55:42;8.80;;;2.93;;
14078;SDS011;7115;50.150;8.568;2022-08-19T14:58:10;5.13;;;2.40;;
14078;SDS011;7115;50.150;8.568;2022-08-19T15:00:55;3.13;;;2.30;;
14078;SDS011;7115;50.150;8.568;2022-08-19T15:03:23;2.30;;;2.10;;
14078;SDS011;7115;50.150;8.568;2022-08-19T15:05:51;2.77;;;2.50;;
14078;SDS011;7115;50.150;8.568;2022-08-19T15:08:18;2.53;;;2.33;;
14078;SDS011;7115;50.150;8.568;2022-08-19T15:10:44;2.57;;;2.30;;
14078;SDS011;7115;50.150;8.568;2022-08-19T15:13:13;7.10;;;3.43;;
14078;SDS011;7115;50.150;8.568;2022-08-19T15:15:40;2.97;;;2.50;;
14078;SDS011;7115;50.150;8.568;2022-08-19T15:18:07;3.53;;;2.30;;
14078;SDS011;7115;50.150;8.568;2022-08-19T15:20:34;6.80;;;2.77;;
14078;SDS011;7115;50.150;8.568;2022-08-19T15:23:01;2.93;;;2.57;;
14078;SDS011;7115;50.150;8.568;2022-08-19T15:25:28;4.47;;;2.03;;